Somersett, Nevada
Current Conditions -  °F | °C
As of 9:55 AM on Thursday 29 Jan 2015 (Local Time) from KRNO Reporting Station
Broken Clouds Broken Clouds  
Wind Chill: 40°   Ceiling: 20000
Heat Index: 40°   Visibility: 10mi
Dew Point: 30°   Wind: 0mph
Humidity: 68%   Direction: NA
Pressure: 30.29"   Gusts: NA
Location:  39.5383°N, 119.938°W
Report Text: KRNO 291755Z 00000KT 10SM FEW035 FEW050 SCT090 BKN200 04/M01 A3029 RMK AO2 SLP251 ACSL DSNT SE MTN TOPS OBSCD DSNT SW NW T00441011 10044 21017 50001
Loading
Personal Weather Stations






























Interactive Weather Map New forecast layout! Learn more

10-Day Weather Forecast

Advertisements
Track Severe Weather on mobile